MMVA

Carlos Rovirosa Pérez International Airport

Villahermosa, Mexico
TAF MMVA 250513Z 2506/2606 09005KT 6SM HZ SCT015 SCT060 TEMPO 2506/2510 6SM TSRA BKN010CB FM251000 06005KT 6SM HZ SCT010 BKN070 TEMPO 2510/2514 2SM BR BKN010 FM251800 08010KT 6SM HZ SCT020 BKN200 TEMPO 2522/2602 5SM TSRA BKN015CB
Issued Valid From Valid To
Sep-25 @ 05:13 UTC
(12 hours ago)
Sep-25 @ 06:00 UTC
(11 hours ago)
Sep-26 @ 06:00 UTC
(in 13 hours)
Expired Click to View Sep-25 @ 06:00 to Sep-25 @ 10:00
TAF MMVA 250513Z 2506/2606 09005KT 6SM HZ SCT015 SCT060
Wind Visibility Clouds Conditions
90° at 5 knots 6 miles
  • Scattered at 1,500' AGL
  • Scattered at 6,000' AGL
  • Haze
Expired Click to View Sep-25 @ 06:00 to Sep-25 @ 10:00
TEMPO 2506/2510 6SM TSRA BKN010CB
Visibility Clouds Conditions
6 miles
  • Broken at 1,000' AGL
  • Thunderstorm
  • Rain
Expired Click to View Sep-25 @ 10:00 to Sep-25 @ 14:00
TEMPO 2510/2514 2SM BR BKN010
Visibility Clouds Conditions
2 miles
  • Broken at 1,000' AGL
  • Mist
From Sep-25 @ 10:00 to Sep-25 @ 18:00
FM251000 06005KT 6SM HZ SCT010 BKN070
Wind Visibility Clouds Conditions
60° at 5 knots 6 miles
  • Scattered at 1,000' AGL
  • Broken at 7,000' AGL
  • Haze
From Sep-25 @ 18:00 to Sep-26 @ 06:00
FM251800 08010KT 6SM HZ SCT020 BKN200
Wind Visibility Clouds Conditions
80° at 10 knots 6 miles
  • Scattered at 2,000' AGL
  • Broken at 20,000' AGL
  • Haze
Temporary Sep-25 @ 22:00 to Sep-26 @ 02:00
TEMPO 2522/2602 5SM TSRA BKN015CB
Visibility Clouds Conditions
5 miles
  • Broken at 1,500' AGL
  • Thunderstorm
  • Rain
TAF MMVA 250513Z 2506/2606 09005KT 6SM HZ SCT015 SCT060 TEMPO 2506/2510 6SM TSRA BKN010CB FM251000 06005KT 6SM HZ SCT010 BKN070 TEMPO 2510/2514 2SM BR BKN010 FM251800 08010KT 6SM HZ SCT020 BKN200 TEMPO 2522/2602 5SM TSRA BKN015CB
Issued Sep-25 @ 05:13 UTC
(12 hours ago)
Valid From Sep-25 @ 06:00 UTC
(11 hours ago)
Valid To Sep-26 @ 06:00 UTC
(in 13 hours)
Sep-25 @ 06:00 - Sep-25 @ 10:00
Wind Visibility
90° at 5 knots 6 miles
Clouds
  • Scattered at 1,500' AGL
  • Scattered at 6,000' AGL
Conditions
  • Haze
Sep-25 @ 06:00 - Sep-25 @ 10:00
Clouds
  • Broken at 1,000' AGL
Conditions
  • Thunderstorm
  • Rain
Sep-25 @ 10:00 - Sep-25 @ 14:00
Clouds
  • Broken at 1,000' AGL
Conditions
  • Mist
From Sep-25 @ 10:00 - Sep-25 @ 18:00
Wind Visibility
60° at 5 knots 6 miles
Clouds
  • Scattered at 1,000' AGL
  • Broken at 7,000' AGL
Conditions
  • Haze
From Sep-25 @ 18:00 - Sep-26 @ 06:00
Wind Visibility
80° at 10 knots 6 miles
Clouds
  • Scattered at 2,000' AGL
  • Broken at 20,000' AGL
Conditions
  • Haze
Temporary Sep-25 @ 22:00 - Sep-26 @ 02:00
Clouds
  • Broken at 1,500' AGL
Conditions
  • Thunderstorm
  • Rain